sensor_id;sensor_type;location;lat;lon;timestamp;temperature;humidity
13310;DHT22;6723;48.256;16.402;2022-10-16T00:01:16;12.60;99.90
13310;DHT22;6723;48.256;16.402;2022-10-16T00:03:43;12.60;99.90
13310;DHT22;6723;48.256;16.402;2022-10-16T00:06:10;12.50;99.90
13310;DHT22;6723;48.256;16.402;2022-10-16T00:08:37;12.50;99.90
13310;DHT22;6723;48.256;16.402;2022-10-16T00:11:09;12.50;99.90
13310;DHT22;6723;48.256;16.402;2022-10-16T00:13:37;12.50;99.90
13310;DHT22;6723;48.256;16.402;2022-10-16T00:16:04;12.40;99.90
13310;DHT22;6723;48.256;16.402;2022-10-16T00:18:30;12.40;99.90
13310;DHT22;6723;48.256;16.402;2022-10-16T00:21:02;12.40;99.90
13310;DHT22;6723;48.256;16.402;2022-10-16T00:23:28;12.40;99.90
13310;DHT22;6723;48.256;16.402;2022-10-16T00:25:59;12.40;99.90
13310;DHT22;6723;48.256;16.402;2022-10-16T00:28:26;12.40;99.90
13310;DHT22;6723;48.256;16.402;2022-10-16T00:30:52;12.40;99.90
13310;DHT22;6723;48.256;16.402;2022-10-16T00:33:18;12.40;99.90
13310;DHT22;6723;48.256;16.402;2022-10-16T00:35:44;12.40;99.90
13310;DHT22;6723;48.256;16.402;2022-10-16T00:38:10;12.30;99.90
13310;DHT22;6723;48.256;16.402;2022-10-16T00:40:36;12.40;99.90
13310;DHT22;6723;48.256;16.402;2022-10-16T00:43:08;12.40;99.90
13310;DHT22;6723;48.256;16.402;2022-10-16T00:45:34;12.40;99.90
13310;DHT22;6723;48.256;16.402;2022-10-16T00:48:00;12.40;99.90
13310;DHT22;6723;48.256;16.402;2022-10-16T00:50:31;12.40;99.90
13310;DHT22;6723;48.256;16.402;2022-10-16T00:53:00;12.40;99.90
13310;DHT22;6723;48.256;16.402;2022-10-16T00:55:27;12.30;99.90
13310;DHT22;6723;48.256;16.402;2022-10-16T00:57:55;12.30;99.90
13310;DHT22;6723;48.256;16.402;2022-10-16T01:00:25;12.40;99.90
13310;DHT22;6723;48.256;16.402;2022-10-16T01:02:57;12.40;99.90
13310;DHT22;6723;48.256;16.402;2022-10-16T01:05:32;12.30;99.90
13310;DHT22;6723;48.256;16.402;2022-10-16T01:08:10;12.30;99.90
13310;DHT22;6723;48.256;16.402;2022-10-16T01:10:57;12.30;99.90
13310;DHT22;6723;48.256;16.402;2022-10-16T01:13:30;12.20;99.90
13310;DHT22;6723;48.256;16.402;2022-10-16T01:16:05;12.30;99.90
13310;DHT22;6723;48.256;16.402;2022-10-16T01:18:43;12.30;99.90
13310;DHT22;6723;48.256;16.402;2022-10-16T01:21:20;12.20;99.90
13310;DHT22;6723;48.256;16.402;2022-10-16T01:29:25;12.20;99.90
13310;DHT22;6723;48.256;16.402;2022-10-16T01:32:01;12.20;99.90
13310;DHT22;6723;48.256;16.402;2022-10-16T01:34:49;12.20;99.90
13310;DHT22;6723;48.256;16.402;2022-10-16T01:37:41;12.20;99.90
13310;DHT22;6723;48.256;16.402;2022-10-16T01:40:12;12.20;99.90
13310;DHT22;6723;48.256;16.402;2022-10-16T01:42:52;12.30;99.90
13310;DHT22;6723;48.256;16.402;2022-10-16T01:45:20;12.30;99.90
13310;DHT22;6723;48.256;16.402;2022-10-16T01:47:47;12.30;99.90
13310;DHT22;6723;48.256;16.402;2022-10-16T01:50:15;12.30;99.90
13310;DHT22;6723;48.256;16.402;2022-10-16T01:52:44;12.30;99.90
13310;DHT22;6723;48.256;16.402;2022-10-16T01:55:14;12.20;99.90
13310;DHT22;6723;48.256;16.402;2022-10-16T01:57:44;12.20;99.90
13310;DHT22;6723;48.256;16.402;2022-10-16T02:00:13;12.20;99.90
13310;DHT22;6723;48.256;16.402;2022-10-16T02:02:42;12.20;99.90
13310;DHT22;6723;48.256;16.402;2022-10-16T02:07:49;12.20;99.90
13310;DHT22;6723;48.256;16.402;2022-10-16T02:10:16;12.20;99.90
13310;DHT22;6723;48.256;16.402;2022-10-16T02:12:45;12.20;99.90
13310;DHT22;6723;48.256;16.402;2022-10-16T02:15:13;12.20;99.90
13310;DHT22;6723;48.256;16.402;2022-10-16T02:17:39;12.20;99.90
13310;DHT22;6723;48.256;16.402;2022-10-16T02:20:06;12.20;99.90
13310;DHT22;6723;48.256;16.402;2022-10-16T02:22:39;12.20;99.90
13310;DHT22;6723;48.256;16.402;2022-10-16T02:25:30;12.20;99.90
13310;DHT22;6723;48.256;16.402;2022-10-16T02:28:22;12.20;99.90
13310;DHT22;6723;48.256;16.402;2022-10-16T02:30:58;12.20;99.90
13310;DHT22;6723;48.256;16.402;2022-10-16T02:33:26;12.20;99.90
13310;DHT22;6723;48.256;16.402;2022-10-16T02:35:53;12.30;99.90
13310;DHT22;6723;48.256;16.402;2022-10-16T02:38:21;12.30;99.90
13310;DHT22;6723;48.256;16.402;2022-10-16T02:40:48;12.30;99.90
13310;DHT22;6723;48.256;16.402;2022-10-16T02:43:14;12.30;99.90
13310;DHT22;6723;48.256;16.402;2022-10-16T02:45:40;12.40;99.90
13310;DHT22;6723;48.256;16.402;2022-10-16T02:48:06;12.40;99.90
13310;DHT22;6723;48.256;16.402;2022-10-16T02:50:32;12.40;99.90
13310;DHT22;6723;48.256;16.402;2022-10-16T02:52:57;12.40;99.90
13310;DHT22;6723;48.256;16.402;2022-10-16T02:55:23;12.30;99.90
13310;DHT22;6723;48.256;16.402;2022-10-16T02:57:49;12.30;99.90
13310;DHT22;6723;48.256;16.402;2022-10-16T03:00:16;12.30;99.90
13310;DHT22;6723;48.256;16.402;2022-10-16T03:02:43;12.30;99.90
13310;DHT22;6723;48.256;16.402;2022-10-16T03:05:09;12.20;99.90
13310;DHT22;6723;48.256;16.402;2022-10-16T03:07:35;12.20;99.90
13310;DHT22;6723;48.256;16.402;2022-10-16T03:10:01;12.20;99.90
13310;DHT22;6723;48.256;16.402;2022-10-16T03:12:30;12.20;99.90
13310;DHT22;6723;48.256;16.402;2022-10-16T03:14:56;12.10;99.90
13310;DHT22;6723;48.256;16.402;2022-10-16T03:17:24;12.10;99.90
13310;DHT22;6723;48.256;16.402;2022-10-16T03:19:49;12.10;99.90
13310;DHT22;6723;48.256;16.402;2022-10-16T03:22:15;12.10;99.90
13310;DHT22;6723;48.256;16.402;2022-10-16T03:24:41;12.10;99.90
13310;DHT22;6723;48.256;16.402;2022-10-16T03:27:08;12.10;99.90
13310;DHT22;6723;48.256;16.402;2022-10-16T03:29:34;12.10;99.90
13310;DHT22;6723;48.256;16.402;2022-10-16T03:32:00;12.20;99.90
13310;DHT22;6723;48.256;16.402;2022-10-16T03:34:26;12.10;99.90
13310;DHT22;6723;48.256;16.402;2022-10-16T03:36:52;12.10;99.90
13310;DHT22;6723;48.256;16.402;2022-10-16T03:39:19;12.10;99.90
13310;DHT22;6723;48.256;16.402;2022-10-16T03:41:45;12.00;99.90
13310;DHT22;6723;48.256;16.402;2022-10-16T03:44:12;12.00;99.90
13310;DHT22;6723;48.256;16.402;2022-10-16T03:46:38;12.00;99.90
13310;DHT22;6723;48.256;16.402;2022-10-16T03:49:04;12.00;99.90
13310;DHT22;6723;48.256;16.402;2022-10-16T03:51:30;12.00;99.90
13310;DHT22;6723;48.256;16.402;2022-10-16T03:53:56;11.90;99.90
13310;DHT22;6723;48.256;16.402;2022-10-16T03:56:22;11.90;99.90
13310;DHT22;6723;48.256;16.402;2022-10-16T03:58:48;11.90;99.90
13310;DHT22;6723;48.256;16.402;2022-10-16T04:01:13;11.90;99.90
13310;DHT22;6723;48.256;16.402;2022-10-16T04:03:39;11.90;99.90
13310;DHT22;6723;48.256;16.402;2022-10-16T04:06:05;11.90;99.90
13310;DHT22;6723;48.256;16.402;2022-10-16T04:08:34;11.80;99.90
13310;DHT22;6723;48.256;16.402;2022-10-16T04:11:02;11.90;99.90
13310;DHT22;6723;48.256;16.402;2022-10-16T04:13:29;11.90;99.90
13310;DHT22;6723;48.256;16.402;2022-10-16T04:15:54;11.90;99.90
13310;DHT22;6723;48.256;16.402;2022-10-16T04:18:20;11.80;99.90
13310;DHT22;6723;48.256;16.402;2022-10-16T04:21:16;11.80;99.90
13310;DHT22;6723;48.256;16.402;2022-10-16T04:23:42;11.80;99.90
13310;DHT22;6723;48.256;16.402;2022-10-16T04:26:08;11.80;99.90
13310;DHT22;6723;48.256;16.402;2022-10-16T04:28:36;11.80;99.90
13310;DHT22;6723;48.256;16.402;2022-10-16T04:31:06;11.70;99.90
13310;DHT22;6723;48.256;16.402;2022-10-16T04:33:33;11.80;99.90
13310;DHT22;6723;48.256;16.402;2022-10-16T04:36:00;11.80;99.90
13310;DHT22;6723;48.256;16.402;2022-10-16T04:38:26;11.70;99.90
13310;DHT22;6723;48.256;16.402;2022-10-16T04:40:52;11.70;99.90
13310;DHT22;6723;48.256;16.402;2022-10-16T04:43:19;11.70;99.90
13310;DHT22;6723;48.256;16.402;2022-10-16T04:45:44;11.60;99.90
13310;DHT22;6723;48.256;16.402;2022-10-16T04:48:10;11.60;99.90
13310;DHT22;6723;48.256;16.402;2022-10-16T04:50:36;11.60;99.90
13310;DHT22;6723;48.256;16.402;2022-10-16T04:53:02;11.60;99.90
13310;DHT22;6723;48.256;16.402;2022-10-16T04:55:27;11.60;99.90
13310;DHT22;6723;48.256;16.402;2022-10-16T04:57:53;11.60;99.90
13310;DHT22;6723;48.256;16.402;2022-10-16T05:00:19;11.50;99.90
13310;DHT22;6723;48.256;16.402;2022-10-16T05:02:45;11.60;99.90
13310;DHT22;6723;48.256;16.402;2022-10-16T05:05:10;11.60;99.90
13310;DHT22;6723;48.256;16.402;2022-10-16T05:07:37;11.60;99.90
13310;DHT22;6723;48.256;16.402;2022-10-16T05:10:03;11.60;99.90
13310;DHT22;6723;48.256;16.402;2022-10-16T05:12:29;11.60;99.90
13310;DHT22;6723;48.256;16.402;2022-10-16T05:14:54;11.60;99.90
13310;DHT22;6723;48.256;16.402;2022-10-16T05:17:25;11.60;99.90
13310;DHT22;6723;48.256;16.402;2022-10-16T05:19:51;11.60;99.90
13310;DHT22;6723;48.256;16.402;2022-10-16T05:22:16;11.60;99.90
13310;DHT22;6723;48.256;16.402;2022-10-16T05:24:42;11.60;99.90
13310;DHT22;6723;48.256;16.402;2022-10-16T05:27:09;11.60;99.90
13310;DHT22;6723;48.256;16.402;2022-10-16T05:29:35;11.50;99.90
13310;DHT22;6723;48.256;16.402;2022-10-16T05:32:00;11.60;99.90
13310;DHT22;6723;48.256;16.402;2022-10-16T05:34:27;11.60;99.90
13310;DHT22;6723;48.256;16.402;2022-10-16T05:36:52;11.60;99.90
13310;DHT22;6723;48.256;16.402;2022-10-16T05:39:18;11.60;99.90
13310;DHT22;6723;48.256;16.402;2022-10-16T05:41:44;11.80;99.90
13310;DHT22;6723;48.256;16.402;2022-10-16T05:44:11;11.80;99.90
13310;DHT22;6723;48.256;16.402;2022-10-16T05:46:37;11.70;99.90
13310;DHT22;6723;48.256;16.402;2022-10-16T05:49:13;11.80;99.90
13310;DHT22;6723;48.256;16.402;2022-10-16T05:51:39;11.80;99.90
13310;DHT22;6723;48.256;16.402;2022-10-16T05:54:05;11.80;99.90
13310;DHT22;6723;48.256;16.402;2022-10-16T05:56:31;11.80;99.90
13310;DHT22;6723;48.256;16.402;2022-10-16T05:58:56;11.80;99.90
13310;DHT22;6723;48.256;16.402;2022-10-16T06:01:22;11.90;99.90
13310;DHT22;6723;48.256;16.402;2022-10-16T06:03:51;11.90;99.90
13310;DHT22;6723;48.256;16.402;2022-10-16T06:06:19;11.90;99.90
13310;DHT22;6723;48.256;16.402;2022-10-16T06:08:47;11.90;99.90
13310;DHT22;6723;48.256;16.402;2022-10-16T06:11:19;11.90;99.90
13310;DHT22;6723;48.256;16.402;2022-10-16T06:13:45;12.00;99.90
13310;DHT22;6723;48.256;16.402;2022-10-16T06:16:14;12.00;99.90
13310;DHT22;6723;48.256;16.402;2022-10-16T06:18:40;12.20;99.90
13310;DHT22;6723;48.256;16.402;2022-10-16T06:21:14;12.20;99.90
13310;DHT22;6723;48.256;16.402;2022-10-16T06:23:41;12.10;99.90
13310;DHT22;6723;48.256;16.402;2022-10-16T06:26:12;12.20;99.90
13310;DHT22;6723;48.256;16.402;2022-10-16T06:28:41;12.30;99.90
13310;DHT22;6723;48.256;16.402;2022-10-16T06:31:08;12.30;99.90
13310;DHT22;6723;48.256;16.402;2022-10-16T06:33:35;12.20;99.90
13310;DHT22;6723;48.256;16.402;2022-10-16T06:36:06;12.30;99.90
13310;DHT22;6723;48.256;16.402;2022-10-16T06:38:32;12.30;99.90
13310;DHT22;6723;48.256;16.402;2022-10-16T06:40:58;12.20;99.90
13310;DHT22;6723;48.256;16.402;2022-10-16T06:43:25;12.20;99.90
13310;DHT22;6723;48.256;16.402;2022-10-16T06:45:55;12.20;99.90
13310;DHT22;6723;48.256;16.402;2022-10-16T06:48:23;12.30;99.90
13310;DHT22;6723;48.256;16.402;2022-10-16T06:51:00;12.20;99.90
13310;DHT22;6723;48.256;16.402;2022-10-16T06:53:28;12.20;99.90
13310;DHT22;6723;48.256;16.402;2022-10-16T06:55:57;12.30;99.90
13310;DHT22;6723;48.256;16.402;2022-10-16T06:58:24;12.40;99.90
13310;DHT22;6723;48.256;16.402;2022-10-16T07:00:55;12.30;99.90
13310;DHT22;6723;48.256;16.402;2022-10-16T07:03:22;12.30;99.90
13310;DHT22;6723;48.256;16.402;2022-10-16T07:05:48;12.30;99.90
13310;DHT22;6723;48.256;16.402;2022-10-16T07:08:17;12.30;99.90
13310;DHT22;6723;48.256;16.402;2022-10-16T07:10:43;12.30;99.90
13310;DHT22;6723;48.256;16.402;2022-10-16T07:13:09;12.40;99.90
13310;DHT22;6723;48.256;16.402;2022-10-16T07:15:42;12.40;99.90
13310;DHT22;6723;48.256;16.402;2022-10-16T07:18:10;12.60;99.90
13310;DHT22;6723;48.256;16.402;2022-10-16T07:20:36;12.50;99.90
13310;DHT22;6723;48.256;16.402;2022-10-16T07:23:02;12.40;99.90
13310;DHT22;6723;48.256;16.402;2022-10-16T07:25:28;12.40;99.90
13310;DHT22;6723;48.256;16.402;2022-10-16T07:27:54;12.40;99.90
13310;DHT22;6723;48.256;16.402;2022-10-16T07:30:21;12.40;99.90
13310;DHT22;6723;48.256;16.402;2022-10-16T07:32:47;12.50;99.90
13310;DHT22;6723;48.256;16.402;2022-10-16T07:35:12;12.50;99.90
13310;DHT22;6723;48.256;16.402;2022-10-16T07:37:38;12.70;99.90
13310;DHT22;6723;48.256;16.402;2022-10-16T07:40:05;12.70;99.90
13310;DHT22;6723;48.256;16.402;2022-10-16T07:42:31;12.60;99.90
13310;DHT22;6723;48.256;16.402;2022-10-16T07:44:57;12.60;99.90
13310;DHT22;6723;48.256;16.402;2022-10-16T07:47:22;12.60;99.90
13310;DHT22;6723;48.256;16.402;2022-10-16T07:49:48;12.50;99.90
13310;DHT22;6723;48.256;16.402;2022-10-16T07:52:14;12.50;99.90
13310;DHT22;6723;48.256;16.402;2022-10-16T07:54:40;12.50;99.90
13310;DHT22;6723;48.256;16.402;2022-10-16T07:57:05;12.60;99.90
13310;DHT22;6723;48.256;16.402;2022-10-16T07:59:31;12.70;99.90
13310;DHT22;6723;48.256;16.402;2022-10-16T08:01:57;12.80;99.90
13310;DHT22;6723;48.256;16.402;2022-10-16T08:04:23;12.80;99.90
13310;DHT22;6723;48.256;16.402;2022-10-16T08:06:48;13.00;99.90
13310;DHT22;6723;48.256;16.402;2022-10-16T08:09:15;13.10;99.90
13310;DHT22;6723;48.256;16.402;2022-10-16T08:11:40;13.20;99.90
13310;DHT22;6723;48.256;16.402;2022-10-16T08:14:06;13.00;99.90
13310;DHT22;6723;48.256;16.402;2022-10-16T08:16:32;13.10;99.90
13310;DHT22;6723;48.256;16.402;2022-10-16T08:18:58;13.10;99.90
13310;DHT22;6723;48.256;16.402;2022-10-16T08:21:24;13.10;99.90
13310;DHT22;6723;48.256;16.402;2022-10-16T08:23:50;13.00;99.90
13310;DHT22;6723;48.256;16.402;2022-10-16T08:26:16;13.10;99.90
13310;DHT22;6723;48.256;16.402;2022-10-16T08:28:42;13.10;99.90
13310;DHT22;6723;48.256;16.402;2022-10-16T08:31:13;13.10;99.90
13310;DHT22;6723;48.256;16.402;2022-10-16T08:33:42;13.20;99.90
13310;DHT22;6723;48.256;16.402;2022-10-16T08:36:10;13.40;99.90
13310;DHT22;6723;48.256;16.402;2022-10-16T08:38:37;13.40;99.90
13310;DHT22;6723;48.256;16.402;2022-10-16T08:43:31;13.60;99.90
13310;DHT22;6723;48.256;16.402;2022-10-16T08:48:51;13.90;99.90
13310;DHT22;6723;48.256;16.402;2022-10-16T08:51:37;13.90;99.90
13310;DHT22;6723;48.256;16.402;2022-10-16T08:56:46;14.00;99.90
13310;DHT22;6723;48.256;16.402;2022-10-16T08:59:14;14.20;99.90
13310;DHT22;6723;48.256;16.402;2022-10-16T09:01:44;14.00;99.90
13310;DHT22;6723;48.256;16.402;2022-10-16T09:07:05;14.00;99.90
13310;DHT22;6723;48.256;16.402;2022-10-16T09:09:58;14.10;99.90
13310;DHT22;6723;48.256;16.402;2022-10-16T09:12:40;14.00;99.90
13310;DHT22;6723;48.256;16.402;2022-10-16T09:18:15;14.10;99.90
13310;DHT22;6723;48.256;16.402;2022-10-16T09:21:23;14.20;99.90
13310;DHT22;6723;48.256;16.402;2022-10-16T09:23:40;14.30;99.90
13310;DHT22;6723;48.256;16.402;2022-10-16T09:26:10;14.60;99.90
13310;DHT22;6723;48.256;16.402;2022-10-16T09:28:37;14.30;99.90
13310;DHT22;6723;48.256;16.402;2022-10-16T09:31:02;14.40;99.90
13310;DHT22;6723;48.256;16.402;2022-10-16T09:33:39;14.50;99.90
13310;DHT22;6723;48.256;16.402;2022-10-16T09:36:06;14.60;99.90
13310;DHT22;6723;48.256;16.402;2022-10-16T09:38:36;14.70;99.90
13310;DHT22;6723;48.256;16.402;2022-10-16T09:41:22;14.70;99.90
13310;DHT22;6723;48.256;16.402;2022-10-16T09:43:56;14.70;99.90
13310;DHT22;6723;48.256;16.402;2022-10-16T09:46:28;15.00;99.90
13310;DHT22;6723;48.256;16.402;2022-10-16T09:49:16;15.20;99.90
13310;DHT22;6723;48.256;16.402;2022-10-16T09:51:44;15.50;99.90
13310;DHT22;6723;48.256;16.402;2022-10-16T09:56:36;15.70;99.90
13310;DHT22;6723;48.256;16.402;2022-10-16T09:59:12;15.60;99.90
13310;DHT22;6723;48.256;16.402;2022-10-16T10:01:41;16.00;99.90
13310;DHT22;6723;48.256;16.402;2022-10-16T10:04:07;16.10;99.90
13310;DHT22;6723;48.256;16.402;2022-10-16T10:06:56;16.40;99.90
13310;DHT22;6723;48.256;16.402;2022-10-16T10:11:55;16.90;99.90
13310;DHT22;6723;48.256;16.402;2022-10-16T10:14:41;17.70;99.90
13310;DHT22;6723;48.256;16.402;2022-10-16T10:17:19;18.50;99.90
13310;DHT22;6723;48.256;16.402;2022-10-16T10:22:18;18.70;99.90
13310;DHT22;6723;48.256;16.402;2022-10-16T10:24:55;19.20;99.90
13310;DHT22;6723;48.256;16.402;2022-10-16T10:27:37;19.50;99.90
13310;DHT22;6723;48.256;16.402;2022-10-16T10:30:19;19.50;99.90
13310;DHT22;6723;48.256;16.402;2022-10-16T10:33:49;19.20;99.90
13310;DHT22;6723;48.256;16.402;2022-10-16T10:38:48;19.80;99.90
13310;DHT22;6723;48.256;16.402;2022-10-16T10:44:16;21.50;99.90
13310;DHT22;6723;48.256;16.402;2022-10-16T10:49:45;21.50;99.90
13310;DHT22;6723;48.256;16.402;2022-10-16T10:55:33;21.70;99.90
13310;DHT22;6723;48.256;16.402;2022-10-16T11:06:22;21.60;99.90
13310;DHT22;6723;48.256;16.402;2022-10-16T11:14:20;22.60;99.90
13310;DHT22;6723;48.256;16.402;2022-10-16T11:16:55;22.50;99.90
13310;DHT22;6723;48.256;16.402;2022-10-16T11:22:19;23.40;99.90
13310;DHT22;6723;48.256;16.402;2022-10-16T11:30:31;24.50;99.90
13310;DHT22;6723;48.256;16.402;2022-10-16T11:38:51;23.60;99.90
13310;DHT22;6723;48.256;16.402;2022-10-16T11:49:33;24.40;99.90
13310;DHT22;6723;48.256;16.402;2022-10-16T11:58:20;23.70;99.90
13310;DHT22;6723;48.256;16.402;2022-10-16T12:03:40;22.60;99.90
13310;DHT22;6723;48.256;16.402;2022-10-16T12:08:53;23.40;99.90
13310;DHT22;6723;48.256;16.402;2022-10-16T12:13:49;22.80;99.90
13310;DHT22;6723;48.256;16.402;2022-10-16T12:18:43;23.40;99.90
13310;DHT22;6723;48.256;16.402;2022-10-16T12:21:10;23.70;99.90
13310;DHT22;6723;48.256;16.402;2022-10-16T12:23:50;23.60;99.90
13310;DHT22;6723;48.256;16.402;2022-10-16T12:26:31;24.40;99.90
13310;DHT22;6723;48.256;16.402;2022-10-16T12:31:48;23.30;99.90
13310;DHT22;6723;48.256;16.402;2022-10-16T12:36:53;21.70;99.90
13310;DHT22;6723;48.256;16.402;2022-10-16T12:39:27;21.60;99.90
13310;DHT22;6723;48.256;16.402;2022-10-16T12:42:06;21.40;99.90
13310;DHT22;6723;48.256;16.402;2022-10-16T12:44:44;21.70;99.90
13310;DHT22;6723;48.256;16.402;2022-10-16T12:47:24;21.60;99.90
13310;DHT22;6723;48.256;16.402;2022-10-16T12:50:00;21.80;99.90
13310;DHT22;6723;48.256;16.402;2022-10-16T12:52:36;21.90;99.90
13310;DHT22;6723;48.256;16.402;2022-10-16T12:55:04;22.40;99.90
13310;DHT22;6723;48.256;16.402;2022-10-16T13:00:22;21.90;99.90
13310;DHT22;6723;48.256;16.402;2022-10-16T13:19:38;21.70;99.90
13310;DHT22;6723;48.256;16.402;2022-10-16T13:22:43;21.80;99.90
13310;DHT22;6723;48.256;16.402;2022-10-16T13:30:18;22.10;99.90
13310;DHT22;6723;48.256;16.402;2022-10-16T13:32:46;22.10;99.90
13310;DHT22;6723;48.256;16.402;2022-10-16T13:35:28;22.00;99.90
13310;DHT22;6723;48.256;16.402;2022-10-16T13:38:15;21.90;99.90
13310;DHT22;6723;48.256;16.402;2022-10-16T13:40:58;21.90;99.90
13310;DHT22;6723;48.256;16.402;2022-10-16T13:43:41;21.90;99.90
13310;DHT22;6723;48.256;16.402;2022-10-16T13:48:40;21.60;99.90
13310;DHT22;6723;48.256;16.402;2022-10-16T13:51:17;21.70;99.90
13310;DHT22;6723;48.256;16.402;2022-10-16T13:53:44;21.70;99.90
13310;DHT22;6723;48.256;16.402;2022-10-16T13:56:18;21.70;99.90
13310;DHT22;6723;48.256;16.402;2022-10-16T13:58:45;21.60;99.90
13310;DHT22;6723;48.256;16.402;2022-10-16T14:01:22;21.70;99.90
13310;DHT22;6723;48.256;16.402;2022-10-16T14:03:49;21.60;99.90
13310;DHT22;6723;48.256;16.402;2022-10-16T14:06:19;21.90;99.90
13310;DHT22;6723;48.256;16.402;2022-10-16T14:09:08;21.80;99.90
13310;DHT22;6723;48.256;16.402;2022-10-16T14:11:46;21.90;99.90
13310;DHT22;6723;48.256;16.402;2022-10-16T14:14:14;21.70;99.90
13310;DHT22;6723;48.256;16.402;2022-10-16T14:16:42;21.80;99.90
13310;DHT22;6723;48.256;16.402;2022-10-16T14:19:21;21.80;99.90
13310;DHT22;6723;48.256;16.402;2022-10-16T14:21:50;21.70;99.90
13310;DHT22;6723;48.256;16.402;2022-10-16T14:24:35;21.60;99.90
13310;DHT22;6723;48.256;16.402;2022-10-16T14:27:02;21.60;99.90
13310;DHT22;6723;48.256;16.402;2022-10-16T14:29:29;21.60;99.90
13310;DHT22;6723;48.256;16.402;2022-10-16T14:32:00;21.50;99.90
13310;DHT22;6723;48.256;16.402;2022-10-16T14:34:29;21.60;99.90
13310;DHT22;6723;48.256;16.402;2022-10-16T14:37:00;21.60;99.90
13310;DHT22;6723;48.256;16.402;2022-10-16T14:39:30;21.60;99.90
13310;DHT22;6723;48.256;16.402;2022-10-16T14:41:57;21.70;99.90
13310;DHT22;6723;48.256;16.402;2022-10-16T14:44:30;21.50;99.90
13310;DHT22;6723;48.256;16.402;2022-10-16T14:46:57;21.50;99.90
13310;DHT22;6723;48.256;16.402;2022-10-16T14:49:25;21.40;99.90
13310;DHT22;6723;48.256;16.402;2022-10-16T14:51:53;21.30;99.90
13310;DHT22;6723;48.256;16.402;2022-10-16T14:54:19;21.20;99.90
13310;DHT22;6723;48.256;16.402;2022-10-16T14:56:50;21.30;99.90
13310;DHT22;6723;48.256;16.402;2022-10-16T14:59:21;21.20;99.90
13310;DHT22;6723;48.256;16.402;2022-10-16T15:01:49;21.10;99.90
13310;DHT22;6723;48.256;16.402;2022-10-16T15:04:15;21.00;99.90
13310;DHT22;6723;48.256;16.402;2022-10-16T15:06:42;21.00;99.90
13310;DHT22;6723;48.256;16.402;2022-10-16T15:09:08;20.90;99.90
13310;DHT22;6723;48.256;16.402;2022-10-16T15:11:34;20.90;99.90
13310;DHT22;6723;48.256;16.402;2022-10-16T15:14:00;20.80;99.90
13310;DHT22;6723;48.256;16.402;2022-10-16T15:16:25;20.80;99.90
13310;DHT22;6723;48.256;16.402;2022-10-16T15:18:51;20.70;99.90
13310;DHT22;6723;48.256;16.402;2022-10-16T15:23:50;20.60;99.90
13310;DHT22;6723;48.256;16.402;2022-10-16T15:26:16;20.60;99.90
13310;DHT22;6723;48.256;16.402;2022-10-16T15:28:42;20.50;99.90
13310;DHT22;6723;48.256;16.402;2022-10-16T15:31:08;20.40;99.90
13310;DHT22;6723;48.256;16.402;2022-10-16T15:33:34;20.40;99.90
13310;DHT22;6723;48.256;16.402;2022-10-16T15:36:01;20.30;99.90
13310;DHT22;6723;48.256;16.402;2022-10-16T15:38:28;20.10;99.90
13310;DHT22;6723;48.256;16.402;2022-10-16T15:40:54;20.10;99.90
13310;DHT22;6723;48.256;16.402;2022-10-16T15:43:21;20.00;99.90
13310;DHT22;6723;48.256;16.402;2022-10-16T15:46:02;19.90;99.90
13310;DHT22;6723;48.256;16.402;2022-10-16T15:48:29;19.90;99.90
13310;DHT22;6723;48.256;16.402;2022-10-16T15:50:55;19.80;99.90
13310;DHT22;6723;48.256;16.402;2022-10-16T15:53:21;19.80;99.90
13310;DHT22;6723;48.256;16.402;2022-10-16T15:55:47;19.70;99.90
13310;DHT22;6723;48.256;16.402;2022-10-16T15:58:13;19.60;99.90
13310;DHT22;6723;48.256;16.402;2022-10-16T16:00:38;19.50;99.90
13310;DHT22;6723;48.256;16.402;2022-10-16T16:03:04;19.40;99.90
13310;DHT22;6723;48.256;16.402;2022-10-16T16:05:30;19.30;99.90
13310;DHT22;6723;48.256;16.402;2022-10-16T16:07:57;19.20;99.90
13310;DHT22;6723;48.256;16.402;2022-10-16T16:10:23;19.10;99.90
13310;DHT22;6723;48.256;16.402;2022-10-16T16:12:49;19.00;99.90
13310;DHT22;6723;48.256;16.402;2022-10-16T16:15:19;18.90;99.90
13310;DHT22;6723;48.256;16.402;2022-10-16T16:17:45;18.80;99.90
13310;DHT22;6723;48.256;16.402;2022-10-16T16:20:11;18.80;99.90
13310;DHT22;6723;48.256;16.402;2022-10-16T16:22:37;18.70;99.90
13310;DHT22;6723;48.256;16.402;2022-10-16T16:25:03;18.70;99.90
13310;DHT22;6723;48.256;16.402;2022-10-16T16:27:29;18.60;99.90
13310;DHT22;6723;48.256;16.402;2022-10-16T16:30:00;18.60;99.90
13310;DHT22;6723;48.256;16.402;2022-10-16T16:32:26;18.50;99.90
13310;DHT22;6723;48.256;16.402;2022-10-16T16:34:51;18.50;99.90
13310;DHT22;6723;48.256;16.402;2022-10-16T16:37:17;18.40;99.90
13310;DHT22;6723;48.256;16.402;2022-10-16T16:39:43;18.30;99.90
13310;DHT22;6723;48.256;16.402;2022-10-16T16:42:09;18.30;99.90
13310;DHT22;6723;48.256;16.402;2022-10-16T16:44:36;18.30;99.90
13310;DHT22;6723;48.256;16.402;2022-10-16T16:47:03;18.20;99.90
13310;DHT22;6723;48.256;16.402;2022-10-16T16:49:29;18.20;99.90
13310;DHT22;6723;48.256;16.402;2022-10-16T16:51:55;18.20;99.90
13310;DHT22;6723;48.256;16.402;2022-10-16T16:54:21;18.10;99.90
13310;DHT22;6723;48.256;16.402;2022-10-16T16:56:46;18.00;99.90
13310;DHT22;6723;48.256;16.402;2022-10-16T16:59:14;18.00;99.90
13310;DHT22;6723;48.256;16.402;2022-10-16T17:01:41;18.00;99.90
13310;DHT22;6723;48.256;16.402;2022-10-16T17:04:25;17.90;99.90
13310;DHT22;6723;48.256;16.402;2022-10-16T17:06:53;17.90;99.90
13310;DHT22;6723;48.256;16.402;2022-10-16T17:09:20;17.90;99.90
13310;DHT22;6723;48.256;16.402;2022-10-16T17:11:46;17.90;99.90
13310;DHT22;6723;48.256;16.402;2022-10-16T17:14:14;17.80;99.90
13310;DHT22;6723;48.256;16.402;2022-10-16T17:16:41;17.80;99.90
13310;DHT22;6723;48.256;16.402;2022-10-16T17:19:15;17.80;99.90
13310;DHT22;6723;48.256;16.402;2022-10-16T17:21:42;17.70;99.90
13310;DHT22;6723;48.256;16.402;2022-10-16T17:24:08;17.70;99.90
13310;DHT22;6723;48.256;16.402;2022-10-16T17:26:34;17.60;99.90
13310;DHT22;6723;48.256;16.402;2022-10-16T17:29:05;17.60;99.90
13310;DHT22;6723;48.256;16.402;2022-10-16T17:31:33;17.60;99.90
13310;DHT22;6723;48.256;16.402;2022-10-16T17:34:00;17.50;99.90
13310;DHT22;6723;48.256;16.402;2022-10-16T17:36:27;17.50;99.90
13310;DHT22;6723;48.256;16.402;2022-10-16T17:39:03;17.50;99.90
13310;DHT22;6723;48.256;16.402;2022-10-16T17:41:40;17.50;99.90
13310;DHT22;6723;48.256;16.402;2022-10-16T17:44:06;17.50;99.90
13310;DHT22;6723;48.256;16.402;2022-10-16T17:46:32;17.40;99.90
13310;DHT22;6723;48.256;16.402;2022-10-16T17:48:58;17.40;99.90
13310;DHT22;6723;48.256;16.402;2022-10-16T17:51:29;17.40;99.90
13310;DHT22;6723;48.256;16.402;2022-10-16T17:53:58;17.40;99.90